sensor_id;sensor_type;location;lat;lon;timestamp;temperature;humidity
67722;SHT31;58309;45.292;11.820;2023-06-24T00:00:38;19.90;74.39
67722;SHT31;58309;45.292;11.820;2023-06-24T00:03:04;19.87;74.38
67722;SHT31;58309;45.292;11.820;2023-06-24T00:05:32;19.85;74.75
67722;SHT31;58309;45.292;11.820;2023-06-24T00:07:58;19.79;74.51
67722;SHT31;58309;45.292;11.820;2023-06-24T00:10:27;19.75;73.80
67722;SHT31;58309;45.292;11.820;2023-06-24T00:12:53;19.75;73.00
67722;SHT31;58309;45.292;11.820;2023-06-24T00:15:19;19.75;73.01
67722;SHT31;58309;45.292;11.820;2023-06-24T00:17:44;19.72;72.57
67722;SHT31;58309;45.292;11.820;2023-06-24T00:20:10;19.68;72.37
67722;SHT31;58309;45.292;11.820;2023-06-24T00:22:39;19.71;72.16
67722;SHT31;58309;45.292;11.820;2023-06-24T00:25:09;19.72;71.47
67722;SHT31;58309;45.292;11.820;2023-06-24T00:27:35;19.71;71.94
67722;SHT31;58309;45.292;11.820;2023-06-24T00:30:00;19.69;72.29
67722;SHT31;58309;45.292;11.820;2023-06-24T00:32:26;19.66;72.69
67722;SHT31;58309;45.292;11.820;2023-06-24T00:34:51;19.65;72.26
67722;SHT31;58309;45.292;11.820;2023-06-24T00:37:17;19.62;71.98
67722;SHT31;58309;45.292;11.820;2023-06-24T00:39:42;19.58;71.84
67722;SHT31;58309;45.292;11.820;2023-06-24T00:42:07;19.55;71.98
67722;SHT31;58309;45.292;11.820;2023-06-24T00:44:33;19.52;72.19
67722;SHT31;58309;45.292;11.820;2023-06-24T00:46:58;19.54;72.34
67722;SHT31;58309;45.292;11.820;2023-06-24T00:49:24;19.52;73.03
67722;SHT31;58309;45.292;11.820;2023-06-24T00:51:49;19.50;73.44
67722;SHT31;58309;45.292;11.820;2023-06-24T00:54:18;19.43;73.96
67722;SHT31;58309;45.292;11.820;2023-06-24T00:56:46;19.41;74.14
67722;SHT31;58309;45.292;11.820;2023-06-24T00:59:15;19.41;74.60
67722;SHT31;58309;45.292;11.820;2023-06-24T01:01:41;19.41;74.46
67722;SHT31;58309;45.292;11.820;2023-06-24T01:04:07;19.50;77.84
67722;SHT31;58309;45.292;11.820;2023-06-24T01:06:35;19.50;76.71
67722;SHT31;58309;45.292;11.820;2023-06-24T01:09:01;19.50;75.19
67722;SHT31;58309;45.292;11.820;2023-06-24T01:11:28;19.44;76.23
67722;SHT31;58309;45.292;11.820;2023-06-24T01:13:54;19.47;75.46
67722;SHT31;58309;45.292;11.820;2023-06-24T01:22:06;19.28;76.09
67722;SHT31;58309;45.292;11.820;2023-06-24T01:24:48;19.17;76.43
67722;SHT31;58309;45.292;11.820;2023-06-24T01:27:32;19.10;76.95
67722;SHT31;58309;45.292;11.820;2023-06-24T01:33:05;18.92;78.19
67722;SHT31;58309;45.292;11.820;2023-06-24T01:35:34;18.74;78.57
67722;SHT31;58309;45.292;11.820;2023-06-24T01:38:05;18.67;78.80
67722;SHT31;58309;45.292;11.820;2023-06-24T01:40:38;18.55;79.55
67722;SHT31;58309;45.292;11.820;2023-06-24T01:43:08;18.45;80.25
67722;SHT31;58309;45.292;11.820;2023-06-24T01:45:41;18.34;80.64
67722;SHT31;58309;45.292;11.820;2023-06-24T01:48:09;18.22;80.53
67722;SHT31;58309;45.292;11.820;2023-06-24T01:50:39;18.14;81.05
67722;SHT31;58309;45.292;11.820;2023-06-24T01:53:06;18.14;81.31
67722;SHT31;58309;45.292;11.820;2023-06-24T01:55:33;18.09;81.07
67722;SHT31;58309;45.292;11.820;2023-06-24T01:58:02;18.11;81.08
67722;SHT31;58309;45.292;11.820;2023-06-24T02:00:28;18.16;83.24
67722;SHT31;58309;45.292;11.820;2023-06-24T02:02:54;18.15;82.57
67722;SHT31;58309;45.292;11.820;2023-06-24T02:05:21;18.14;82.21
67722;SHT31;58309;45.292;11.820;2023-06-24T02:07:48;18.12;82.02
67722;SHT31;58309;45.292;11.820;2023-06-24T02:10:15;18.11;82.47
67722;SHT31;58309;45.292;11.820;2023-06-24T02:12:44;18.09;82.52
67722;SHT31;58309;45.292;11.820;2023-06-24T02:15:10;18.05;82.05
67722;SHT31;58309;45.292;11.820;2023-06-24T02:17:36;18.00;81.85
67722;SHT31;58309;45.292;11.820;2023-06-24T02:20:05;17.91;81.58
67722;SHT31;58309;45.292;11.820;2023-06-24T02:22:33;17.87;81.80
67722;SHT31;58309;45.292;11.820;2023-06-24T02:24:59;17.77;82.33
67722;SHT31;58309;45.292;11.820;2023-06-24T02:27:24;17.71;83.06
67722;SHT31;58309;45.292;11.820;2023-06-24T02:29:51;17.66;83.25
67722;SHT31;58309;45.292;11.820;2023-06-24T02:32:17;17.57;83.11
67722;SHT31;58309;45.292;11.820;2023-06-24T02:34:43;17.53;83.13
67722;SHT31;58309;45.292;11.820;2023-06-24T02:37:09;17.51;83.41
67722;SHT31;58309;45.292;11.820;2023-06-24T02:39:34;17.50;83.30
67722;SHT31;58309;45.292;11.820;2023-06-24T02:42:03;17.49;83.07
67722;SHT31;58309;45.292;11.820;2023-06-24T02:44:28;17.53;82.80
67722;SHT31;58309;45.292;11.820;2023-06-24T02:46:55;17.53;83.00
67722;SHT31;58309;45.292;11.820;2023-06-24T02:49:21;17.56;83.52
67722;SHT31;58309;45.292;11.820;2023-06-24T02:51:48;17.56;83.30
67722;SHT31;58309;45.292;11.820;2023-06-24T02:54:13;17.54;82.85
67722;SHT31;58309;45.292;11.820;2023-06-24T02:56:40;17.53;82.66
67722;SHT31;58309;45.292;11.820;2023-06-24T02:59:09;17.51;82.78
67722;SHT31;58309;45.292;11.820;2023-06-24T03:01:36;17.49;82.59
67722;SHT31;58309;45.292;11.820;2023-06-24T03:04:05;17.53;81.98
67722;SHT31;58309;45.292;11.820;2023-06-24T03:06:31;17.51;81.69
67722;SHT31;58309;45.292;11.820;2023-06-24T03:08:58;17.56;81.78
67722;SHT31;58309;45.292;11.820;2023-06-24T03:11:25;17.56;81.93
67722;SHT31;58309;45.292;11.820;2023-06-24T03:13:51;17.57;81.71
67722;SHT31;58309;45.292;11.820;2023-06-24T03:16:16;17.57;81.71
67722;SHT31;58309;45.292;11.820;2023-06-24T03:18:42;17.60;81.93
67722;SHT31;58309;45.292;11.820;2023-06-24T03:21:10;17.63;81.79
67722;SHT31;58309;45.292;11.820;2023-06-24T03:23:36;17.64;81.71
67722;SHT31;58309;45.292;11.820;2023-06-24T03:26:02;17.70;81.87
67722;SHT31;58309;45.292;11.820;2023-06-24T03:28:29;17.73;82.66
67722;SHT31;58309;45.292;11.820;2023-06-24T03:30:56;17.73;82.65
67722;SHT31;58309;45.292;11.820;2023-06-24T03:33:21;17.75;83.26
67722;SHT31;58309;45.292;11.820;2023-06-24T03:35:47;17.84;85.63
67722;SHT31;58309;45.292;11.820;2023-06-24T03:38:12;17.90;83.54
67722;SHT31;58309;45.292;11.820;2023-06-24T03:40:38;17.98;83.38
67722;SHT31;58309;45.292;11.820;2023-06-24T03:43:03;18.04;82.76
67722;SHT31;58309;45.292;11.820;2023-06-24T03:45:29;18.06;82.25
67722;SHT31;58309;45.292;11.820;2023-06-24T03:47:54;18.11;82.07
67722;SHT31;58309;45.292;11.820;2023-06-24T03:50:20;18.11;81.35
67722;SHT31;58309;45.292;11.820;2023-06-24T03:52:45;18.11;82.12
67722;SHT31;58309;45.292;11.820;2023-06-24T03:55:11;18.06;83.12
67722;SHT31;58309;45.292;11.820;2023-06-24T03:57:37;18.05;83.39
67722;SHT31;58309;45.292;11.820;2023-06-24T04:00:03;18.05;83.55
67722;SHT31;58309;45.292;11.820;2023-06-24T04:02:44;18.02;83.50
67722;SHT31;58309;45.292;11.820;2023-06-24T04:05:10;18.00;83.54
67722;SHT31;58309;45.292;11.820;2023-06-24T04:07:36;18.01;83.48
67722;SHT31;58309;45.292;11.820;2023-06-24T04:10:05;17.97;83.56
67722;SHT31;58309;45.292;11.820;2023-06-24T04:12:34;17.98;83.17
67722;SHT31;58309;45.292;11.820;2023-06-24T04:15:01;18.00;82.94
67722;SHT31;58309;45.292;11.820;2023-06-24T04:17:28;17.98;82.91
67722;SHT31;58309;45.292;11.820;2023-06-24T04:19:53;18.02;82.90
67722;SHT31;58309;45.292;11.820;2023-06-24T04:22:19;18.06;82.85
67722;SHT31;58309;45.292;11.820;2023-06-24T04:24:44;18.09;82.92
67722;SHT31;58309;45.292;11.820;2023-06-24T04:27:09;18.15;82.56
67722;SHT31;58309;45.292;11.820;2023-06-24T04:29:35;18.24;82.49
67722;SHT31;58309;45.292;11.820;2023-06-24T04:32:00;18.34;82.31
67722;SHT31;58309;45.292;11.820;2023-06-24T04:34:26;18.43;82.36
67722;SHT31;58309;45.292;11.820;2023-06-24T04:36:51;18.79;81.92
67722;SHT31;58309;45.292;11.820;2023-06-24T04:39:17;19.30;80.69
67722;SHT31;58309;45.292;11.820;2023-06-24T04:41:42;19.54;79.75
67722;SHT31;58309;45.292;11.820;2023-06-24T04:44:07;19.72;79.29
67722;SHT31;58309;45.292;11.820;2023-06-24T04:46:33;19.87;79.01
67722;SHT31;58309;45.292;11.820;2023-06-24T04:48:59;20.05;79.35
67722;SHT31;58309;45.292;11.820;2023-06-24T04:51:25;20.20;78.84
67722;SHT31;58309;45.292;11.820;2023-06-24T04:53:50;20.29;77.69
67722;SHT31;58309;45.292;11.820;2023-06-24T04:56:16;20.37;76.91
67722;SHT31;58309;45.292;11.820;2023-06-24T04:58:41;20.54;77.25
67722;SHT31;58309;45.292;11.820;2023-06-24T05:01:07;20.68;78.39
67722;SHT31;58309;45.292;11.820;2023-06-24T05:03:33;20.80;77.69
67722;SHT31;58309;45.292;11.820;2023-06-24T05:05:58;20.90;77.74
67722;SHT31;58309;45.292;11.820;2023-06-24T05:08:24;21.01;77.84
67722;SHT31;58309;45.292;11.820;2023-06-24T05:10:49;21.08;77.91
67722;SHT31;58309;45.292;11.820;2023-06-24T05:13:15;21.12;78.11
67722;SHT31;58309;45.292;11.820;2023-06-24T05:15:40;21.22;77.78
67722;SHT31;58309;45.292;11.820;2023-06-24T05:18:05;21.33;78.02
67722;SHT31;58309;45.292;11.820;2023-06-24T05:20:31;21.42;77.88
67722;SHT31;58309;45.292;11.820;2023-06-24T05:22:56;21.49;77.66
67722;SHT31;58309;45.292;11.820;2023-06-24T05:25:22;21.59;77.45
67722;SHT31;58309;45.292;11.820;2023-06-24T05:27:47;21.69;76.46
67722;SHT31;58309;45.292;11.820;2023-06-24T05:30:13;21.83;76.59
67722;SHT31;58309;45.292;11.820;2023-06-24T05:32:39;22.00;74.80
67722;SHT31;58309;45.292;11.820;2023-06-24T05:35:05;22.30;71.79
67722;SHT31;58309;45.292;11.820;2023-06-24T05:37:31;22.51;71.29
67722;SHT31;58309;45.292;11.820;2023-06-24T05:39:56;22.71;71.16
67722;SHT31;58309;45.292;11.820;2023-06-24T05:42:22;22.86;71.27
67722;SHT31;58309;45.292;11.820;2023-06-24T05:44:48;22.98;68.79
67722;SHT31;58309;45.292;11.820;2023-06-24T05:47:14;23.09;70.85
67722;SHT31;58309;45.292;11.820;2023-06-24T05:49:39;23.23;69.62
67722;SHT31;58309;45.292;11.820;2023-06-24T05:52:05;23.37;70.10
67722;SHT31;58309;45.292;11.820;2023-06-24T05:54:31;23.42;68.20
67722;SHT31;58309;45.292;11.820;2023-06-24T05:56:56;23.57;68.23
67722;SHT31;58309;45.292;11.820;2023-06-24T05:59:22;23.67;67.27
67722;SHT31;58309;45.292;11.820;2023-06-24T06:01:47;23.77;66.69
67722;SHT31;58309;45.292;11.820;2023-06-24T06:04:13;23.82;65.92
67722;SHT31;58309;45.292;11.820;2023-06-24T06:06:38;23.92;65.89
67722;SHT31;58309;45.292;11.820;2023-06-24T06:09:05;24.02;65.24
67722;SHT31;58309;45.292;11.820;2023-06-24T06:11:30;24.14;65.24
67722;SHT31;58309;45.292;11.820;2023-06-24T06:13:56;24.23;64.96
67722;SHT31;58309;45.292;11.820;2023-06-24T06:16:21;24.40;65.13
67722;SHT31;58309;45.292;11.820;2023-06-24T06:18:46;24.51;65.11
67722;SHT31;58309;45.292;11.820;2023-06-24T06:21:12;24.66;65.87
67722;SHT31;58309;45.292;11.820;2023-06-24T06:23:37;24.76;64.99
67722;SHT31;58309;45.292;11.820;2023-06-24T06:26:03;24.86;63.75
67722;SHT31;58309;45.292;11.820;2023-06-24T06:28:28;24.88;64.42
67722;SHT31;58309;45.292;11.820;2023-06-24T06:30:54;24.90;65.56
67722;SHT31;58309;45.292;11.820;2023-06-24T06:33:19;24.97;64.45
67722;SHT31;58309;45.292;11.820;2023-06-24T06:35:45;25.06;64.97
67722;SHT31;58309;45.292;11.820;2023-06-24T06:38:10;25.11;63.71
67722;SHT31;58309;45.292;11.820;2023-06-24T06:40:36;25.23;63.10
67722;SHT31;58309;45.292;11.820;2023-06-24T06:43:01;25.35;63.57
67722;SHT31;58309;45.292;11.820;2023-06-24T06:45:27;25.39;64.12
67722;SHT31;58309;45.292;11.820;2023-06-24T06:47:52;25.46;64.58
67722;SHT31;58309;45.292;11.820;2023-06-24T06:50:17;25.65;63.02
67722;SHT31;58309;45.292;11.820;2023-06-24T06:52:43;25.85;63.40
67722;SHT31;58309;45.292;11.820;2023-06-24T06:55:09;26.23;62.44
67722;SHT31;58309;45.292;11.820;2023-06-24T06:57:34;26.67;61.27
67722;SHT31;58309;45.292;11.820;2023-06-24T07:00:00;27.06;61.35
67722;SHT31;58309;45.292;11.820;2023-06-24T07:02:25;27.42;58.56
67722;SHT31;58309;45.292;11.820;2023-06-24T07:04:51;27.73;58.46
67722;SHT31;58309;45.292;11.820;2023-06-24T07:07:17;27.79;58.17
67722;SHT31;58309;45.292;11.820;2023-06-24T07:09:42;27.86;56.83
67722;SHT31;58309;45.292;11.820;2023-06-24T07:12:08;27.77;57.96
67722;SHT31;58309;45.292;11.820;2023-06-24T07:14:33;27.76;58.07
67722;SHT31;58309;45.292;11.820;2023-06-24T07:16:59;27.52;60.56
67722;SHT31;58309;45.292;11.820;2023-06-24T07:19:25;27.50;60.68
67722;SHT31;58309;45.292;11.820;2023-06-24T07:21:51;27.38;58.74
67722;SHT31;58309;45.292;11.820;2023-06-24T07:24:17;26.94;59.96
67722;SHT31;58309;45.292;11.820;2023-06-24T07:26:42;26.48;62.17
67722;SHT31;58309;45.292;11.820;2023-06-24T07:29:08;26.60;61.49
67722;SHT31;58309;45.292;11.820;2023-06-24T07:31:34;26.77;60.72
67722;SHT31;58309;45.292;11.820;2023-06-24T07:34:00;26.87;59.71
67722;SHT31;58309;45.292;11.820;2023-06-24T07:36:25;26.95;59.29
67722;SHT31;58309;45.292;11.820;2023-06-24T07:38:51;27.05;60.61
67722;SHT31;58309;45.292;11.820;2023-06-24T07:41:16;27.25;60.37
67722;SHT31;58309;45.292;11.820;2023-06-24T07:43:42;27.52;60.40
67722;SHT31;58309;45.292;11.820;2023-06-24T07:46:07;27.94;60.54
67722;SHT31;58309;45.292;11.820;2023-06-24T07:48:33;28.13;59.50
67722;SHT31;58309;45.292;11.820;2023-06-24T07:50:58;28.44;57.36
67722;SHT31;58309;45.292;11.820;2023-06-24T07:53:24;28.54;59.26
67722;SHT31;58309;45.292;11.820;2023-06-24T07:55:49;28.01;59.09
67722;SHT31;58309;45.292;11.820;2023-06-24T07:58:15;27.86;59.46
67722;SHT31;58309;45.292;11.820;2023-06-24T08:00:40;28.04;59.32
67722;SHT31;58309;45.292;11.820;2023-06-24T08:03:06;28.59;56.86
67722;SHT31;58309;45.292;11.820;2023-06-24T08:05:31;29.78;54.91
67722;SHT31;58309;45.292;11.820;2023-06-24T08:07:56;29.97;55.45
67722;SHT31;58309;45.292;11.820;2023-06-24T08:10:22;30.09;53.40
67722;SHT31;58309;45.292;11.820;2023-06-24T08:12:47;31.71;50.04
67722;SHT31;58309;45.292;11.820;2023-06-24T08:15:13;32.50;48.33
67722;SHT31;58309;45.292;11.820;2023-06-24T08:17:38;33.35;46.63
67722;SHT31;58309;45.292;11.820;2023-06-24T08:20:04;34.11;44.60
67722;SHT31;58309;45.292;11.820;2023-06-24T08:22:30;34.87;42.53
67722;SHT31;58309;45.292;11.820;2023-06-24T08:24:55;35.00;41.47
67722;SHT31;58309;45.292;11.820;2023-06-24T08:27:21;35.83;42.70
67722;SHT31;58309;45.292;11.820;2023-06-24T08:29:46;34.27;42.70
67722;SHT31;58309;45.292;11.820;2023-06-24T08:32:12;33.28;44.88
67722;SHT31;58309;45.292;11.820;2023-06-24T08:34:37;34.04;44.04
67722;SHT31;58309;45.292;11.820;2023-06-24T08:37:03;34.88;42.54
67722;SHT31;58309;45.292;11.820;2023-06-24T08:39:28;34.82;43.09
67722;SHT31;58309;45.292;11.820;2023-06-24T08:41:54;34.77;43.09
67722;SHT31;58309;45.292;11.820;2023-06-24T08:44:19;35.06;42.50
67722;SHT31;58309;45.292;11.820;2023-06-24T08:46:45;35.78;41.73
67722;SHT31;58309;45.292;11.820;2023-06-24T08:49:23;35.98;40.32
67722;SHT31;58309;45.292;11.820;2023-06-24T08:52:03;35.33;41.75
67722;SHT31;58309;45.292;11.820;2023-06-24T08:54:30;35.59;41.89
67722;SHT31;58309;45.292;11.820;2023-06-24T08:56:59;36.46;38.91
67722;SHT31;58309;45.292;11.820;2023-06-24T08:59:27;36.71;39.79
67722;SHT31;58309;45.292;11.820;2023-06-24T09:01:52;37.07;37.74
67722;SHT31;58309;45.292;11.820;2023-06-24T09:04:18;37.20;37.26
67722;SHT31;58309;45.292;11.820;2023-06-24T09:06:43;37.33;36.63
67722;SHT31;58309;45.292;11.820;2023-06-24T09:09:20;37.41;40.34
67722;SHT31;58309;45.292;11.820;2023-06-24T09:11:53;37.17;39.50
67722;SHT31;58309;45.292;11.820;2023-06-24T09:14:19;35.88;38.94
67722;SHT31;58309;45.292;11.820;2023-06-24T09:16:58;36.15;39.49
67722;SHT31;58309;45.292;11.820;2023-06-24T09:19:27;37.47;36.98
67722;SHT31;58309;45.292;11.820;2023-06-24T09:22:06;37.46;37.64
67722;SHT31;58309;45.292;11.820;2023-06-24T09:24:33;36.27;38.13
67722;SHT31;58309;45.292;11.820;2023-06-24T09:26:58;38.09;36.09
67722;SHT31;58309;45.292;11.820;2023-06-24T09:29:29;37.43;37.44
67722;SHT31;58309;45.292;11.820;2023-06-24T09:31:56;38.74;35.29
67722;SHT31;58309;45.292;11.820;2023-06-24T09:34:23;39.30;33.12
67722;SHT31;58309;45.292;11.820;2023-06-24T09:36:53;37.96;34.83
67722;SHT31;58309;45.292;11.820;2023-06-24T09:39:20;36.48;38.05
67722;SHT31;58309;45.292;11.820;2023-06-24T09:41:57;37.34;36.99
67722;SHT31;58309;45.292;11.820;2023-06-24T09:44:23;38.40;35.03
67722;SHT31;58309;45.292;11.820;2023-06-24T09:46:49;38.28;30.45
67722;SHT31;58309;45.292;11.820;2023-06-24T09:49:15;39.15;31.21
67722;SHT31;58309;45.292;11.820;2023-06-24T09:51:49;39.41;33.55
67722;SHT31;58309;45.292;11.820;2023-06-24T09:54:15;39.61;31.91
67722;SHT31;58309;45.292;11.820;2023-06-24T09:56:51;38.31;33.18
67722;SHT31;58309;45.292;11.820;2023-06-24T09:59:19;36.48;36.19
67722;SHT31;58309;45.292;11.820;2023-06-24T10:01:49;38.15;33.74
67722;SHT31;58309;45.292;11.820;2023-06-24T10:04:17;38.51;31.57
67722;SHT31;58309;45.292;11.820;2023-06-24T10:06:43;39.02;31.32
67722;SHT31;58309;45.292;11.820;2023-06-24T10:09:10;39.40;31.12
67722;SHT31;58309;45.292;11.820;2023-06-24T10:11:37;38.94;32.72
67722;SHT31;58309;45.292;11.820;2023-06-24T10:14:03;39.48;30.41
67722;SHT31;58309;45.292;11.820;2023-06-24T10:16:28;39.68;31.72
67722;SHT31;58309;45.292;11.820;2023-06-24T10:19:00;38.92;31.68
67722;SHT31;58309;45.292;11.820;2023-06-24T10:21:49;39.58;30.93
67722;SHT31;58309;45.292;11.820;2023-06-24T10:24:31;40.33;30.03
67722;SHT31;58309;45.292;11.820;2023-06-24T10:27:04;40.84;29.15
67722;SHT31;58309;45.292;11.820;2023-06-24T10:29:31;40.19;29.99
67722;SHT31;58309;45.292;11.820;2023-06-24T10:32:02;39.66;29.50
67722;SHT31;58309;45.292;11.820;2023-06-24T10:34:29;39.03;30.07
67722;SHT31;58309;45.292;11.820;2023-06-24T10:37:09;38.92;30.67
67722;SHT31;58309;45.292;11.820;2023-06-24T10:39:50;39.57;30.17
67722;SHT31;58309;45.292;11.820;2023-06-24T10:47:31;38.11;29.34
67722;SHT31;58309;45.292;11.820;2023-06-24T10:49:57;39.43;28.88
67722;SHT31;58309;45.292;11.820;2023-06-24T10:52:22;39.88;28.80
67722;SHT31;58309;45.292;11.820;2023-06-24T10:54:49;38.96;32.67
67722;SHT31;58309;45.292;11.820;2023-06-24T10:57:16;40.50;28.08
67722;SHT31;58309;45.292;11.820;2023-06-24T10:59:47;41.28;29.66
67722;SHT31;58309;45.292;11.820;2023-06-24T11:02:14;41.38;29.44
67722;SHT31;58309;45.292;11.820;2023-06-24T11:04:57;41.15;26.99
67722;SHT31;58309;45.292;11.820;2023-06-24T11:07:24;40.49;29.71
67722;SHT31;58309;45.292;11.820;2023-06-24T11:09:54;40.35;31.06
67722;SHT31;58309;45.292;11.820;2023-06-24T11:12:25;40.28;31.16
67722;SHT31;58309;45.292;11.820;2023-06-24T11:14:51;39.84;31.17
67722;SHT31;58309;45.292;11.820;2023-06-24T11:17:19;39.47;31.26
67722;SHT31;58309;45.292;11.820;2023-06-24T11:19:44;39.17;32.12
67722;SHT31;58309;45.292;11.820;2023-06-24T11:22:10;38.79;32.91
67722;SHT31;58309;45.292;11.820;2023-06-24T11:24:36;38.33;33.17
67722;SHT31;58309;45.292;11.820;2023-06-24T11:27:03;38.15;35.35
67722;SHT31;58309;45.292;11.820;2023-06-24T11:29:29;36.68;36.11
67722;SHT31;58309;45.292;11.820;2023-06-24T11:31:58;37.43;37.45
67722;SHT31;58309;45.292;11.820;2023-06-24T11:34:24;37.89;35.94
67722;SHT31;58309;45.292;11.820;2023-06-24T11:36:49;36.01;36.88
67722;SHT31;58309;45.292;11.820;2023-06-24T11:39:26;37.09;36.72
67722;SHT31;58309;45.292;11.820;2023-06-24T11:41:52;37.98;35.68
67722;SHT31;58309;45.292;11.820;2023-06-24T11:44:19;38.86;33.74
67722;SHT31;58309;45.292;11.820;2023-06-24T11:46:45;39.33;33.76
67722;SHT31;58309;45.292;11.820;2023-06-24T11:49:11;38.67;34.78
67722;SHT31;58309;45.292;11.820;2023-06-24T11:51:46;39.75;34.06
67722;SHT31;58309;45.292;11.820;2023-06-24T11:54:16;38.80;32.80
67722;SHT31;58309;45.292;11.820;2023-06-24T11:56:42;39.57;31.56
67722;SHT31;58309;45.292;11.820;2023-06-24T11:59:22;39.88;32.65
67722;SHT31;58309;45.292;11.820;2023-06-24T12:01:57;39.65;31.15
67722;SHT31;58309;45.292;11.820;2023-06-24T12:04:33;39.28;31.61
67722;SHT31;58309;45.292;11.820;2023-06-24T12:07:00;39.69;33.76
67722;SHT31;58309;45.292;11.820;2023-06-24T12:09:26;39.51;33.57
67722;SHT31;58309;45.292;11.820;2023-06-24T12:11:52;39.10;30.96
67722;SHT31;58309;45.292;11.820;2023-06-24T12:14:18;38.82;32.39
67722;SHT31;58309;45.292;11.820;2023-06-24T12:16:43;38.77;32.35
67722;SHT31;58309;45.292;11.820;2023-06-24T12:19:09;38.80;33.62
67722;SHT31;58309;45.292;11.820;2023-06-24T12:21:35;38.46;32.24
67722;SHT31;58309;45.292;11.820;2023-06-24T12:24:04;38.09;32.90
67722;SHT31;58309;45.292;11.820;2023-06-24T12:26:31;38.45;33.81
67722;SHT31;58309;45.292;11.820;2023-06-24T12:28:56;37.95;33.73
67722;SHT31;58309;45.292;11.820;2023-06-24T12:31:22;36.74;35.01
67722;SHT31;58309;45.292;11.820;2023-06-24T12:33:48;35.73;35.40
67722;SHT31;58309;45.292;11.820;2023-06-24T12:36:13;34.99;37.62
67722;SHT31;58309;45.292;11.820;2023-06-24T12:38:39;34.30;38.99
67722;SHT31;58309;45.292;11.820;2023-06-24T12:41:05;33.55;38.89
67722;SHT31;58309;45.292;11.820;2023-06-24T12:43:31;33.25;40.17
67722;SHT31;58309;45.292;11.820;2023-06-24T12:45:57;33.23;42.77
67722;SHT31;58309;45.292;11.820;2023-06-24T12:48:22;32.84;40.14
67722;SHT31;58309;45.292;11.820;2023-06-24T12:50:48;32.49;42.48
67722;SHT31;58309;45.292;11.820;2023-06-24T12:53:18;32.40;41.43
67722;SHT31;58309;45.292;11.820;2023-06-24T12:55:43;32.22;41.73
67722;SHT31;58309;45.292;11.820;2023-06-24T12:58:08;32.24;43.10
67722;SHT31;58309;45.292;11.820;2023-06-24T13:00:34;32.02;42.19
67722;SHT31;58309;45.292;11.820;2023-06-24T13:02:59;31.99;42.33
67722;SHT31;58309;45.292;11.820;2023-06-24T13:05:26;31.97;42.33
67722;SHT31;58309;45.292;11.820;2023-06-24T13:07:51;31.79;43.08
67722;SHT31;58309;45.292;11.820;2023-06-24T13:10:17;31.81;42.49
67722;SHT31;58309;45.292;11.820;2023-06-24T13:12:42;31.85;42.92
67722;SHT31;58309;45.292;11.820;2023-06-24T13:15:08;32.02;43.04
67722;SHT31;58309;45.292;11.820;2023-06-24T13:17:35;32.09;41.59
67722;SHT31;58309;45.292;11.820;2023-06-24T13:20:00;31.83;42.84
67722;SHT31;58309;45.292;11.820;2023-06-24T13:22:28;32.00;42.63
67722;SHT31;58309;45.292;11.820;2023-06-24T13:24:54;31.94;41.90
67722;SHT31;58309;45.292;11.820;2023-06-24T13:27:19;31.86;42.72
67722;SHT31;58309;45.292;11.820;2023-06-24T13:29:45;31.82;44.03
67722;SHT31;58309;45.292;11.820;2023-06-24T13:32:10;31.86;43.33
67722;SHT31;58309;45.292;11.820;2023-06-24T13:34:35;31.34;44.74
67722;SHT31;58309;45.292;11.820;2023-06-24T13:37:01;31.51;43.69
67722;SHT31;58309;45.292;11.820;2023-06-24T13:39:27;31.63;44.43
67722;SHT31;58309;45.292;11.820;2023-06-24T13:41:53;31.71;43.27
67722;SHT31;58309;45.292;11.820;2023-06-24T13:44:18;31.93;43.36
67722;SHT31;58309;45.292;11.820;2023-06-24T13:46:44;31.85;41.69
67722;SHT31;58309;45.292;11.820;2023-06-24T13:49:10;31.86;43.13
67722;SHT31;58309;45.292;11.820;2023-06-24T13:51:35;31.83;41.65
67722;SHT31;58309;45.292;11.820;2023-06-24T13:54:01;31.88;41.35
67722;SHT31;58309;45.292;11.820;2023-06-24T13:56:27;31.81;43.88
67722;SHT31;58309;45.292;11.820;2023-06-24T13:58:54;31.82;43.77
67722;SHT31;58309;45.292;11.820;2023-06-24T14:01:20;32.06;43.11
67722;SHT31;58309;45.292;11.820;2023-06-24T14:03:47;32.36;42.81
67722;SHT31;58309;45.292;11.820;2023-06-24T14:06:17;32.30;43.82
67722;SHT31;58309;45.292;11.820;2023-06-24T14:08:43;32.63;42.14
67722;SHT31;58309;45.292;11.820;2023-06-24T14:11:09;32.64;41.87
67722;SHT31;58309;45.292;11.820;2023-06-24T14:13:34;32.75;40.58
67722;SHT31;58309;45.292;11.820;2023-06-24T14:16:02;32.82;41.52
67722;SHT31;58309;45.292;11.820;2023-06-24T14:18:27;33.07;40.93
67722;SHT31;58309;45.292;11.820;2023-06-24T14:20:57;32.85;39.80
67722;SHT31;58309;45.292;11.820;2023-06-24T14:23:23;33.42;40.30
67722;SHT31;58309;45.292;11.820;2023-06-24T14:25:50;33.08;38.64
67722;SHT31;58309;45.292;11.820;2023-06-24T14:28:16;33.21;39.85
67722;SHT31;58309;45.292;11.820;2023-06-24T14:30:41;33.59;38.97
67722;SHT31;58309;45.292;11.820;2023-06-24T14:33:07;33.66;36.66
67722;SHT31;58309;45.292;11.820;2023-06-24T14:35:33;33.21;38.17
67722;SHT31;58309;45.292;11.820;2023-06-24T14:37:58;33.00;38.02
67722;SHT31;58309;45.292;11.820;2023-06-24T14:40:23;32.50;36.76
67722;SHT31;58309;45.292;11.820;2023-06-24T14:42:49;32.70;37.57
67722;SHT31;58309;45.292;11.820;2023-06-24T14:45:14;32.98;37.96
67722;SHT31;58309;45.292;11.820;2023-06-24T14:47:40;33.14;35.96
67722;SHT31;58309;45.292;11.820;2023-06-24T14:50:06;33.17;34.97
67722;SHT31;58309;45.292;11.820;2023-06-24T14:52:31;33.49;35.97
67722;SHT31;58309;45.292;11.820;2023-06-24T14:54:57;33.36;35.49
67722;SHT31;58309;45.292;11.820;2023-06-24T14:57:22;33.31;35.90
67722;SHT31;58309;45.292;11.820;2023-06-24T14:59:51;33.23;35.70
67722;SHT31;58309;45.292;11.820;2023-06-24T15:02:16;32.81;36.10
67722;SHT31;58309;45.292;11.820;2023-06-24T15:04:42;34.00;35.89
67722;SHT31;58309;45.292;11.820;2023-06-24T15:07:08;34.30;34.92
67722;SHT31;58309;45.292;11.820;2023-06-24T15:09:33;34.47;35.41
67722;SHT31;58309;45.292;11.820;2023-06-24T15:11:59;34.62;35.67
67722;SHT31;58309;45.292;11.820;2023-06-24T15:14:25;34.45;37.10
67722;SHT31;58309;45.292;11.820;2023-06-24T15:16:50;33.00;37.88
67722;SHT31;58309;45.292;11.820;2023-06-24T15:19:16;32.40;37.81
67722;SHT31;58309;45.292;11.820;2023-06-24T15:21:41;32.57;39.47
67722;SHT31;58309;45.292;11.820;2023-06-24T15:24:06;32.43;39.51
67722;SHT31;58309;45.292;11.820;2023-06-24T15:26:32;32.30;39.86